createdAt,value
2022-10-31T00:01:45.853Z,45.20
2022-10-31T00:04:13.865Z,42.20
2022-10-31T00:06:41.529Z,32.45
2022-10-31T00:09:11.863Z,39.13
2022-10-31T00:11:39.672Z,32.30
2022-10-31T00:14:08.191Z,27.30
2022-10-31T00:16:36.034Z,29.63
2022-10-31T00:19:06.995Z,33.53
2022-10-31T00:21:35.515Z,30.33
2022-10-31T00:24:04.075Z,31.15
2022-10-31T00:26:32.478Z,28.90
2022-10-31T00:29:01.258Z,37.35
2022-10-31T00:31:29.492Z,42.33
2022-10-31T00:33:58.295Z,33.55
2022-10-31T00:38:56.404Z,29.35
2022-10-31T00:41:25.631Z,23.33
2022-10-31T00:43:53.650Z,29.77
2022-10-31T00:46:21.344Z,30.23
2022-10-31T00:48:52.101Z,31.80
2022-10-31T00:51:19.822Z,30.52
2022-10-31T00:53:47.853Z,44.45
2022-10-31T00:56:15.628Z,49.83
2022-10-31T00:58:44.089Z,48.50
2022-10-31T01:01:11.884Z,53.33
2022-10-31T01:03:41.036Z,53.22
2022-10-31T01:06:14.745Z,53.47
2022-10-31T01:08:44.425Z,55.80
2022-10-31T01:11:22.794Z,60.63
2022-10-31T01:13:55.156Z,60.42
2022-10-31T01:16:26.615Z,52.50
2022-10-31T01:21:27.594Z,53.13
2022-10-31T01:23:58.881Z,49.00
2022-10-31T01:26:32.004Z,51.03
2022-10-31T01:29:02.293Z,44.58
2022-10-31T01:31:33.585Z,72.32
2022-10-31T01:34:02.254Z,60.65
2022-10-31T01:36:34.911Z,47.88
2022-10-31T01:39:09.075Z,47.20
2022-10-31T01:41:39.236Z,40.45
2022-10-31T01:44:27.707Z,51.13
2022-10-31T01:47:06.727Z,40.25
2022-10-31T01:49:55.927Z,38.22
2022-10-31T01:52:28.471Z,42.50
2022-10-31T01:55:06.421Z,38.72
2022-10-31T01:57:35.691Z,38.17
2022-10-31T02:00:08.490Z,38.53
2022-10-31T02:02:43.404Z,40.47
2022-10-31T02:05:17.356Z,44.58
2022-10-31T02:07:54.856Z,38.28
2022-10-31T02:10:29.970Z,42.47
2022-10-31T02:13:01.308Z,34.08
2022-10-31T02:15:31.286Z,36.45
2022-10-31T02:17:59.818Z,37.47
2022-10-31T02:20:39.139Z,35.50
2022-10-31T02:23:34.666Z,33.97
2022-10-31T02:26:32.979Z,34.38
2022-10-31T02:29:39.296Z,38.30
2022-10-31T02:32:15.474Z,39.05
2022-10-31T02:34:58.468Z,43.45
2022-10-31T02:37:57.108Z,52.70
2022-10-31T02:40:59.461Z,49.03
2022-10-31T02:43:41.465Z,40.92
2022-10-31T02:46:25.851Z,39.05
2022-10-31T02:48:59.838Z,39.33
2022-10-31T02:51:28.018Z,43.53
2022-10-31T02:53:56.105Z,43.95
2022-10-31T02:56:23.900Z,40.05
2022-10-31T02:59:03.459Z,32.85
2022-10-31T03:02:07.767Z,36.78
2022-10-31T03:04:47.830Z,31.15
2022-10-31T03:07:30.623Z,31.80
2022-10-31T03:09:59.963Z,31.38
2022-10-31T03:12:46.128Z,33.63
2022-10-31T03:15:23.133Z,29.95
2022-10-31T03:18:22.313Z,31.25
2022-10-31T03:20:57.874Z,30.02
2022-10-31T03:23:26.866Z,35.85
2022-10-31T03:25:56.071Z,35.78
2022-10-31T03:28:37.177Z,34.08
2022-10-31T03:31:07.609Z,32.67
2022-10-31T03:33:41.504Z,36.22
2022-10-31T03:36:12.578Z,32.70
2022-10-31T03:38:43.833Z,34.15
2022-10-31T03:41:20.664Z,31.75
2022-10-31T03:43:55.759Z,29.23
2022-10-31T03:46:25.409Z,28.52
2022-10-31T03:48:56.170Z,23.08
2022-10-31T03:51:29.961Z,28.05
2022-10-31T03:54:10.608Z,29.42
2022-10-31T03:57:09.953Z,29.67
2022-10-31T03:59:44.474Z,27.92
2022-10-31T04:02:17.367Z,23.85
2022-10-31T04:04:46.879Z,24.88
2022-10-31T04:07:16.049Z,27.88
2022-10-31T04:09:46.635Z,22.95
2022-10-31T04:12:17.340Z,23.33
2022-10-31T04:15:17.290Z,19.83
2022-10-31T04:17:48.760Z,26.05
2022-10-31T04:20:19.024Z,24.42
2022-10-31T04:22:47.074Z,25.90
2022-10-31T04:25:15.093Z,23.70
2022-10-31T04:27:43.086Z,21.77
2022-10-31T04:30:11.706Z,26.60
2022-10-31T04:32:41.885Z,30.77
2022-10-31T04:35:10.188Z,29.17
2022-10-31T04:37:38.952Z,34.28
2022-10-31T04:40:07.169Z,40.85
2022-10-31T04:43:10.211Z,31.02
2022-10-31T04:45:40.020Z,74.88
2022-10-31T04:48:08.198Z,132.88
2022-10-31T04:50:37.548Z,155.88
2022-10-31T04:53:05.664Z,39.67
2022-10-31T04:55:40.138Z,40.20
2022-10-31T04:58:23.683Z,51.42
2022-10-31T05:00:56.264Z,53.88
2022-10-31T05:03:24.716Z,37.03
2022-10-31T05:05:52.753Z,32.95
2022-10-31T05:08:21.027Z,41.92
2022-10-31T05:10:51.197Z,43.27
2022-10-31T05:13:19.344Z,50.80
2022-10-31T05:16:13.376Z,56.42
2022-10-31T05:18:50.220Z,53.67
2022-10-31T05:21:36.898Z,54.97
2022-10-31T05:24:05.759Z,47.80
2022-10-31T05:26:35.437Z,45.55
2022-10-31T05:29:03.970Z,43.85
2022-10-31T05:31:31.839Z,43.38
2022-10-31T05:34:00.495Z,41.40
2022-10-31T05:36:46.458Z,32.03
2022-10-31T05:39:17.707Z,39.55
2022-10-31T05:41:49.317Z,43.95
2022-10-31T05:44:35.698Z,41.58
2022-10-31T05:47:07.033Z,43.20
2022-10-31T05:49:53.534Z,51.78
2022-10-31T05:52:39.429Z,47.20
2022-10-31T05:55:18.150Z,50.67
2022-10-31T05:58:00.412Z,58.40
2022-10-31T06:00:29.530Z,54.08
2022-10-31T06:05:59.047Z,54.72
2022-10-31T06:08:32.343Z,52.08
2022-10-31T06:11:07.427Z,52.85
2022-10-31T06:13:55.422Z,60.97
2022-10-31T06:16:27.368Z,56.13
2022-10-31T06:18:58.798Z,51.70
2022-10-31T06:21:27.868Z,60.83
2022-10-31T06:23:55.593Z,56.33
2022-10-31T06:26:34.324Z,53.30
2022-10-31T06:29:04.275Z,45.85
2022-10-31T06:31:59.291Z,45.70
2022-10-31T06:34:26.991Z,62.13
2022-10-31T06:36:54.988Z,52.58
2022-10-31T06:41:54.964Z,54.83
2022-10-31T06:44:24.312Z,50.45
2022-10-31T06:47:01.651Z,53.50
2022-10-31T06:49:52.563Z,50.17
2022-10-31T06:52:24.715Z,57.40
2022-10-31T06:54:53.383Z,74.35
2022-10-31T06:57:22.933Z,83.35
2022-10-31T06:59:50.948Z,95.95
2022-10-31T07:02:31.766Z,96.38
2022-10-31T07:04:59.711Z,100.70
2022-10-31T07:07:27.821Z,82.55
2022-10-31T07:09:55.576Z,59.65
2022-10-31T07:12:38.266Z,47.50
2022-10-31T07:15:06.726Z,50.15
2022-10-31T07:17:34.909Z,46.35
2022-10-31T07:20:02.978Z,38.95
2022-10-31T07:22:37.134Z,42.33
2022-10-31T07:25:07.900Z,44.25
2022-10-31T07:27:54.790Z,45.03
2022-10-31T07:30:22.582Z,55.60
2022-10-31T07:32:56.762Z,74.22
2022-10-31T07:35:28.975Z,78.13
2022-10-31T07:38:09.798Z,84.78
2022-10-31T07:40:37.669Z,80.30
2022-10-31T07:43:11.485Z,68.60
2022-10-31T07:45:59.623Z,64.30
2022-10-31T07:48:42.651Z,44.65
2022-10-31T07:51:30.872Z,39.55
2022-10-31T07:54:20.013Z,42.70
2022-10-31T07:56:48.487Z,41.28
2022-10-31T07:59:16.649Z,40.90
2022-10-31T08:01:44.699Z,33.97
2022-10-31T08:04:37.959Z,34.63
2022-10-31T08:07:24.489Z,30.23
2022-10-31T08:09:59.507Z,33.75
2022-10-31T08:12:31.033Z,25.73
2022-10-31T08:14:59.445Z,24.52
2022-10-31T08:17:27.686Z,17.85
2022-10-31T08:19:57.573Z,22.35
2022-10-31T08:22:33.257Z,24.15
2022-10-31T08:25:02.689Z,24.13
2022-10-31T08:27:31.175Z,17.30
2022-10-31T08:30:01.889Z,20.27
2022-10-31T08:32:29.931Z,21.27
2022-10-31T08:35:16.898Z,23.20
2022-10-31T08:38:04.446Z,22.00
2022-10-31T08:40:34.358Z,15.18
2022-10-31T08:43:06.512Z,24.27
2022-10-31T08:45:35.563Z,21.00
2022-10-31T08:48:07.284Z,17.20
2022-10-31T08:50:36.677Z,19.23
2022-10-31T08:53:06.289Z,24.40
2022-10-31T08:55:37.126Z,22.45
2022-10-31T08:58:16.217Z,18.27
2022-10-31T09:00:52.777Z,20.15
2022-10-31T09:03:24.896Z,16.92
2022-10-31T09:06:01.998Z,13.95
2022-10-31T09:08:33.915Z,13.82
2022-10-31T09:11:04.014Z,13.77
2022-10-31T09:14:00.904Z,14.95
2022-10-31T09:16:55.401Z,20.30
2022-10-31T09:19:31.770Z,17.73
2022-10-31T09:21:59.965Z,16.80
2022-10-31T09:24:28.232Z,18.90
2022-10-31T09:26:58.491Z,20.67
2022-10-31T09:29:29.237Z,20.95
2022-10-31T09:32:00.640Z,14.13
2022-10-31T09:34:35.395Z,26.45
2022-10-31T09:37:14.002Z,18.13
2022-10-31T09:39:41.743Z,26.50
2022-10-31T09:42:51.824Z,15.57
2022-10-31T09:45:38.006Z,15.45
2022-10-31T09:48:36.991Z,17.98
2022-10-31T09:51:21.868Z,14.93
2022-10-31T09:54:22.176Z,18.60
2022-10-31T09:56:51.213Z,15.63
2022-10-31T09:59:35.306Z,15.73
2022-10-31T10:02:21.731Z,17.15
2022-10-31T10:05:05.277Z,12.23
2022-10-31T10:07:54.220Z,12.68
2022-10-31T10:10:59.617Z,15.95
2022-10-31T10:14:17.803Z,15.25
2022-10-31T10:17:10.043Z,15.88
2022-10-31T10:20:02.160Z,11.77
2022-10-31T10:22:38.965Z,12.50
2022-10-31T10:25:12.843Z,15.60
2022-10-31T10:27:52.925Z,21.15
2022-10-31T10:30:33.062Z,11.52
2022-10-31T10:33:32.264Z,13.18
2022-10-31T10:36:08.551Z,15.02
2022-10-31T10:39:10.216Z,13.60
2022-10-31T10:41:39.521Z,16.08
2022-10-31T10:44:11.534Z,17.98
2022-10-31T10:46:57.833Z,12.13
2022-10-31T10:49:33.783Z,14.00
2022-10-31T10:55:21.456Z,12.95
2022-10-31T10:57:56.407Z,14.43
2022-10-31T11:00:33.324Z,18.52
2022-10-31T11:03:01.777Z,12.73
2022-10-31T11:05:51.642Z,9.45
2022-10-31T11:08:27.731Z,12.43
2022-10-31T11:11:21.067Z,14.98
2022-10-31T11:13:51.311Z,16.98
2022-10-31T11:16:28.488Z,17.15
2022-10-31T11:19:20.982Z,12.05
2022-10-31T11:21:53.931Z,13.68
2022-10-31T11:24:29.576Z,11.63
2022-10-31T11:27:18.011Z,14.07
2022-10-31T11:29:45.905Z,10.75
2022-10-31T11:32:27.629Z,13.02
2022-10-31T11:35:02.388Z,15.68
2022-10-31T11:37:44.154Z,9.13
2022-10-31T11:40:24.239Z,14.50
2022-10-31T11:42:55.707Z,15.43
2022-10-31T11:45:33.807Z,12.40
2022-10-31T11:48:03.800Z,11.73
2022-10-31T11:50:42.241Z,17.88
2022-10-31T11:53:18.280Z,19.33
2022-10-31T11:55:47.884Z,15.38
2022-10-31T11:58:24.785Z,21.70
2022-10-31T12:00:56.123Z,13.95
2022-10-31T12:03:24.597Z,13.85
2022-10-31T12:06:06.472Z,17.25
2022-10-31T12:08:39.203Z,16.05
2022-10-31T12:11:16.006Z,16.85
2022-10-31T12:14:03.540Z,13.32
2022-10-31T12:17:06.668Z,17.52
2022-10-31T12:19:43.850Z,18.58
2022-10-31T12:22:20.513Z,17.13
2022-10-31T12:25:19.963Z,16.85
2022-10-31T12:28:04.739Z,11.35
2022-10-31T12:30:47.861Z,17.05
2022-10-31T12:33:27.836Z,14.13
2022-10-31T12:36:24.769Z,16.27
2022-10-31T12:39:07.648Z,14.25
2022-10-31T12:41:52.041Z,16.10
2022-10-31T12:44:39.159Z,15.75
2022-10-31T12:47:25.728Z,13.15
2022-10-31T12:50:19.375Z,12.75
2022-10-31T12:53:12.832Z,11.55
2022-10-31T12:55:59.508Z,13.95
2022-10-31T12:58:34.684Z,15.68
2022-10-31T13:01:19.527Z,19.00
2022-10-31T13:04:00.389Z,13.15
2022-10-31T13:06:44.510Z,17.95
2022-10-31T13:09:24.977Z,16.52
2022-10-31T13:12:15.882Z,19.05
2022-10-31T13:14:52.775Z,16.40
2022-10-31T13:17:37.784Z,17.40
2022-10-31T13:20:43.638Z,15.25
2022-10-31T13:23:52.614Z,12.68
2022-10-31T13:26:24.832Z,13.98
2022-10-31T13:29:13.122Z,16.67
2022-10-31T13:31:44.916Z,18.02
2022-10-31T13:34:27.126Z,12.68
2022-10-31T13:37:17.942Z,14.85
2022-10-31T13:40:12.776Z,19.27
2022-10-31T13:42:46.770Z,16.85
2022-10-31T13:45:16.232Z,15.95
2022-10-31T13:47:55.453Z,17.15
2022-10-31T13:50:29.967Z,17.58
2022-10-31T13:53:23.711Z,19.02
2022-10-31T13:56:09.743Z,23.90
2022-10-31T13:58:38.299Z,19.50
2022-10-31T14:01:12.397Z,19.27
2022-10-31T14:06:47.548Z,23.60
2022-10-31T14:09:32.218Z,23.60
2022-10-31T14:12:11.946Z,18.98
2022-10-31T14:14:51.388Z,17.70
2022-10-31T14:17:33.995Z,17.95
2022-10-31T14:20:24.852Z,23.85
2022-10-31T14:22:52.873Z,27.85
2022-10-31T14:25:33.575Z,29.80
2022-10-31T14:28:34.201Z,33.53
2022-10-31T14:31:03.637Z,23.00
2022-10-31T14:33:33.178Z,26.33
2022-10-31T14:36:18.894Z,16.30
2022-10-31T14:39:16.993Z,16.50
2022-10-31T14:41:55.605Z,19.70
2022-10-31T14:44:36.208Z,24.75
2022-10-31T14:47:41.851Z,29.00
2022-10-31T14:50:31.166Z,32.30
2022-10-31T14:53:04.453Z,36.97
2022-10-31T14:55:34.289Z,31.90
2022-10-31T14:58:07.326Z,36.90
2022-10-31T15:00:38.033Z,28.20
2022-10-31T15:03:27.987Z,37.08
2022-10-31T15:06:00.949Z,27.77
2022-10-31T15:08:39.000Z,25.73
2022-10-31T15:11:21.236Z,27.40
2022-10-31T15:13:57.665Z,22.58
2022-10-31T15:16:27.378Z,17.90
2022-10-31T15:19:02.108Z,21.38
2022-10-31T15:21:30.537Z,18.63
2022-10-31T15:24:01.217Z,22.75
2022-10-31T15:26:44.966Z,22.85
2022-10-31T15:29:19.272Z,33.75
2022-10-31T15:32:19.041Z,30.17
2022-10-31T15:34:47.037Z,38.47
2022-10-31T15:37:20.647Z,31.95
2022-10-31T15:39:50.500Z,36.50
2022-10-31T15:42:27.796Z,44.80
2022-10-31T15:45:02.062Z,48.58
2022-10-31T15:47:33.126Z,361.65
2022-10-31T15:50:02.591Z,886.45
2022-10-31T15:52:35.757Z,922.97
2022-10-31T15:55:19.086Z,757.80
2022-10-31T15:57:49.948Z,263.60
2022-10-31T16:00:25.159Z,127.28
2022-10-31T16:03:05.043Z,123.50
2022-10-31T16:05:52.241Z,85.80
2022-10-31T16:08:25.257Z,74.45
2022-10-31T16:10:54.259Z,74.38
2022-10-31T16:13:34.428Z,68.82
2022-10-31T16:16:32.920Z,87.72
2022-10-31T16:18:55.284Z,87.95
2022-10-31T16:21:30.317Z,65.85
2022-10-31T16:24:07.163Z,54.33
2022-10-31T16:26:35.685Z,48.70
2022-10-31T16:29:05.788Z,68.60
2022-10-31T16:31:39.503Z,39.33
2022-10-31T16:34:26.302Z,43.15
2022-10-31T16:36:54.883Z,48.47
2022-10-31T16:39:23.524Z,60.70
2022-10-31T16:41:57.969Z,57.10
2022-10-31T16:44:27.396Z,201.38
2022-10-31T16:47:15.139Z,145.18
2022-10-31T16:49:45.201Z,72.78
2022-10-31T16:52:13.939Z,69.57
2022-10-31T16:54:41.650Z,79.13
2022-10-31T16:57:15.305Z,90.32
2022-10-31T16:59:43.801Z,82.57
2022-10-31T17:02:18.139Z,75.45
2022-10-31T17:04:46.917Z,84.15
2022-10-31T17:07:16.683Z,79.70
2022-10-31T17:09:44.707Z,68.47
2022-10-31T17:12:21.057Z,80.65
2022-10-31T17:14:52.603Z,88.05
2022-10-31T17:17:20.672Z,72.97
2022-10-31T17:19:48.880Z,64.00
2022-10-31T17:22:17.077Z,54.75
2022-10-31T17:24:44.811Z,57.38
2022-10-31T17:27:13.161Z,57.83
2022-10-31T17:29:40.862Z,54.33
2022-10-31T17:32:08.826Z,58.75
2022-10-31T17:34:36.543Z,51.08
2022-10-31T17:37:04.577Z,60.03
2022-10-31T17:39:32.614Z,58.50
2022-10-31T17:42:00.674Z,54.40
2022-10-31T17:44:28.462Z,59.78
2022-10-31T17:46:56.566Z,56.75
2022-10-31T17:49:25.960Z,51.97
2022-10-31T17:52:01.056Z,55.60
2022-10-31T17:54:29.330Z,49.55
2022-10-31T17:56:57.401Z,51.15
2022-10-31T17:59:27.918Z,58.20
2022-10-31T18:01:56.599Z,48.38
2022-10-31T18:04:24.804Z,51.67
2022-10-31T18:06:52.981Z,69.43
2022-10-31T18:09:20.730Z,64.72
2022-10-31T18:11:48.946Z,58.60
2022-10-31T18:14:16.650Z,53.08
2022-10-31T18:16:44.715Z,56.97
2022-10-31T18:19:17.274Z,47.25
2022-10-31T18:21:47.012Z,65.60
2022-10-31T18:24:14.785Z,53.85
2022-10-31T18:26:42.877Z,48.80
2022-10-31T18:29:12.097Z,40.00
2022-10-31T18:31:40.469Z,45.47
2022-10-31T18:34:08.290Z,55.70
2022-10-31T18:36:36.249Z,53.13
2022-10-31T18:39:03.977Z,55.38
2022-10-31T18:41:32.063Z,47.72
2022-10-31T18:44:00.582Z,47.00
2022-10-31T18:46:29.888Z,39.67
2022-10-31T18:48:57.763Z,39.40
2022-10-31T18:51:25.852Z,36.97
2022-10-31T18:53:56.303Z,42.72
2022-10-31T18:56:25.083Z,38.20
2022-10-31T18:58:53.785Z,38.17
2022-10-31T19:01:22.478Z,46.20
2022-10-31T19:03:58.199Z,35.85
2022-10-31T19:06:27.714Z,34.38
2022-10-31T19:09:00.126Z,38.38
2022-10-31T19:11:28.454Z,40.72
2022-10-31T19:13:58.444Z,42.20
2022-10-31T19:16:26.420Z,49.42
2022-10-31T19:18:56.392Z,45.45
2022-10-31T19:21:24.965Z,33.97
2022-10-31T19:23:54.684Z,47.58
2022-10-31T19:26:22.946Z,34.23
2022-10-31T19:28:50.741Z,46.70
2022-10-31T19:31:19.233Z,37.45
2022-10-31T19:33:47.760Z,42.30
2022-10-31T19:36:18.863Z,39.13
2022-10-31T19:38:49.628Z,40.17
2022-10-31T19:41:25.330Z,42.40
2022-10-31T19:43:54.160Z,44.65
2022-10-31T19:46:40.481Z,43.90
2022-10-31T19:49:12.571Z,50.30
2022-10-31T19:51:40.763Z,50.15
2022-10-31T19:54:08.659Z,53.42
2022-10-31T19:56:39.274Z,57.53
2022-10-31T19:59:07.351Z,59.95
2022-10-31T20:01:35.693Z,56.03
2022-10-31T20:04:03.556Z,71.35
2022-10-31T20:06:38.703Z,60.00
2022-10-31T20:09:10.170Z,65.80
2022-10-31T20:11:39.232Z,55.47
2022-10-31T20:14:08.811Z,51.28
2022-10-31T20:16:37.079Z,56.45
2022-10-31T20:21:39.445Z,58.33
2022-10-31T20:24:09.557Z,48.33
2022-10-31T20:29:07.306Z,50.20
2022-10-31T20:31:38.224Z,46.63
2022-10-31T20:34:06.447Z,50.75
2022-10-31T20:36:34.855Z,45.40
2022-10-31T20:39:04.035Z,43.50
2022-10-31T20:41:32.531Z,40.20
2022-10-31T20:44:03.523Z,43.47
2022-10-31T20:46:31.706Z,37.38
2022-10-31T20:48:59.461Z,42.80
2022-10-31T20:51:29.037Z,45.25
2022-10-31T20:53:58.474Z,47.97
2022-10-31T20:56:28.757Z,44.70
2022-10-31T20:58:57.436Z,55.03
2022-10-31T21:01:31.258Z,65.20
2022-10-31T21:03:59.627Z,65.30
2022-10-31T21:06:29.069Z,68.90
2022-10-31T21:08:57.913Z,67.38
2022-10-31T21:11:27.467Z,48.30
2022-10-31T21:13:55.556Z,39.58
2022-10-31T21:16:29.135Z,39.47
2022-10-31T21:18:57.968Z,38.15
2022-10-31T21:21:32.484Z,29.38
2022-10-31T21:24:02.295Z,31.67
2022-10-31T21:26:36.488Z,30.55
2022-10-31T21:29:06.036Z,33.47
2022-10-31T21:31:36.348Z,34.63
2022-10-31T21:34:04.435Z,41.38
2022-10-31T21:36:32.872Z,41.95
2022-10-31T21:39:01.478Z,42.03
2022-10-31T21:41:29.586Z,49.53
2022-10-31T21:43:57.721Z,51.50
2022-10-31T21:46:28.547Z,50.05
2022-10-31T21:48:57.114Z,49.53
2022-10-31T21:51:29.383Z,43.83
2022-10-31T21:54:16.343Z,37.35
2022-10-31T21:56:44.744Z,39.38
2022-10-31T21:59:12.854Z,33.03
2022-10-31T22:01:41.595Z,35.83
2022-10-31T22:04:09.570Z,33.88
2022-10-31T22:06:38.383Z,29.48
2022-10-31T22:09:08.565Z,27.63
2022-10-31T22:11:37.108Z,21.98
2022-10-31T22:14:05.224Z,24.17
2022-10-31T22:16:36.215Z,23.17
2022-10-31T22:19:05.941Z,25.42
2022-10-31T22:21:49.142Z,25.85
2022-10-31T22:24:18.148Z,29.92
2022-10-31T22:26:46.421Z,27.48
2022-10-31T22:29:18.043Z,29.13
2022-10-31T22:31:53.456Z,28.13
2022-10-31T22:34:25.360Z,29.83
2022-10-31T22:36:56.298Z,30.55
2022-10-31T22:39:24.234Z,32.28
2022-10-31T22:41:52.240Z,32.75
2022-10-31T22:44:20.109Z,36.50
2022-10-31T22:46:48.202Z,37.95
2022-10-31T22:49:16.028Z,49.72
2022-10-31T22:51:45.049Z,42.35
2022-10-31T22:54:15.846Z,40.83
2022-10-31T22:56:44.292Z,43.35
2022-10-31T22:59:13.882Z,32.75
2022-10-31T23:01:45.075Z,34.10
2022-10-31T23:04:13.944Z,36.45
2022-10-31T23:06:42.771Z,40.28
2022-10-31T23:09:14.835Z,35.33
2022-10-31T23:11:42.993Z,42.67
2022-10-31T23:14:18.793Z,34.50
2022-10-31T23:16:50.880Z,34.10
2022-10-31T23:19:30.488Z,37.05
2022-10-31T23:22:04.276Z,38.10
2022-10-31T23:25:02.041Z,43.67
2022-10-31T23:27:30.703Z,44.72
2022-10-31T23:29:59.676Z,39.88
2022-10-31T23:32:30.695Z,38.25
2022-10-31T23:35:01.084Z,37.53
2022-10-31T23:37:32.605Z,37.35
2022-10-31T23:40:00.649Z,39.67
2022-10-31T23:42:29.279Z,37.45
2022-10-31T23:44:57.314Z,39.65
2022-10-31T23:47:25.753Z,41.60
2022-10-31T23:49:53.651Z,33.20
2022-10-31T23:52:21.756Z,33.55
2022-10-31T23:54:49.475Z,36.58
2022-10-31T23:57:20.681Z,35.13
2022-10-31T23:59:48.368Z,36.65
